createdAt,value
2022-10-23T00:00:00.396Z,26.00
2022-10-23T00:02:31.273Z,26.00
2022-10-23T00:05:02.111Z,26.00
2022-10-23T00:07:32.994Z,25.80
2022-10-23T00:10:06.886Z,25.80
2022-10-23T00:12:37.371Z,25.80
2022-10-23T00:15:11.440Z,25.80
2022-10-23T00:17:40.979Z,25.70
2022-10-23T00:20:12.671Z,25.70
2022-10-23T00:22:43.344Z,25.60
2022-10-23T00:25:34.346Z,25.60
2022-10-23T00:28:03.529Z,25.60
2022-10-23T00:30:41.460Z,25.60
2022-10-23T00:33:13.898Z,25.60
2022-10-23T00:35:46.152Z,25.60
2022-10-23T00:38:16.764Z,25.60
2022-10-23T00:43:23.475Z,25.50
2022-10-23T00:45:55.663Z,25.50
2022-10-23T00:48:26.674Z,25.40
2022-10-23T00:50:57.831Z,25.40
2022-10-23T00:53:31.138Z,25.30
2022-10-23T00:56:04.592Z,25.20
2022-10-23T00:58:37.297Z,25.20
2022-10-23T01:01:21.920Z,25.20
2022-10-23T01:04:18.371Z,25.20
2022-10-23T01:06:59.942Z,25.30
2022-10-23T01:09:45.937Z,25.10
2022-10-23T01:12:36.817Z,25.10
2022-10-23T01:15:44.612Z,25.10
2022-10-23T01:18:22.771Z,25.00
2022-10-23T01:21:15.693Z,25.00
2022-10-23T01:23:45.209Z,25.00
2022-10-23T01:26:31.006Z,24.80
2022-10-23T01:29:24.424Z,24.80
2022-10-23T01:32:15.879Z,24.80
2022-10-23T01:34:57.663Z,24.90
2022-10-23T01:37:44.231Z,24.80
2022-10-23T01:40:51.067Z,24.70
2022-10-23T01:43:27.881Z,24.70
2022-10-23T01:46:15.496Z,24.70
2022-10-23T01:48:55.219Z,24.80
2022-10-23T01:51:28.146Z,24.60
2022-10-23T01:54:13.023Z,24.60
2022-10-23T01:56:48.909Z,24.60
2022-10-23T01:59:26.726Z,24.50
2022-10-23T02:02:00.692Z,24.50
2022-10-23T02:04:38.188Z,24.50
2022-10-23T02:07:12.080Z,24.40
2022-10-23T02:09:42.746Z,24.30
2022-10-23T02:12:32.325Z,24.40
2022-10-23T02:15:15.024Z,24.40
2022-10-23T02:18:29.383Z,24.40
2022-10-23T02:21:21.069Z,24.30
2022-10-23T02:24:09.609Z,24.30
2022-10-23T02:26:54.820Z,24.20
2022-10-23T02:29:56.993Z,24.20
2022-10-23T02:32:30.381Z,24.10
2022-10-23T02:35:00.954Z,24.30
2022-10-23T02:37:32.403Z,24.20
2022-10-23T02:40:05.517Z,24.20
2022-10-23T02:43:00.480Z,24.10
2022-10-23T02:45:44.052Z,24.10
2022-10-23T02:48:31.094Z,24.10
2022-10-23T02:51:19.461Z,24.00
2022-10-23T02:56:43.814Z,24.00
2022-10-23T02:59:26.186Z,24.00
2022-10-23T03:02:20.619Z,23.90
2022-10-23T03:04:54.918Z,23.90
2022-10-23T03:07:28.975Z,23.80
2022-10-23T03:10:08.528Z,23.80
2022-10-23T03:12:40.589Z,23.80
2022-10-23T03:15:14.052Z,23.80
2022-10-23T03:17:50.205Z,23.70
2022-10-23T03:20:20.493Z,23.70
2022-10-23T03:22:51.975Z,23.60
2022-10-23T03:25:25.224Z,23.50
2022-10-23T03:27:56.525Z,23.50
2022-10-23T03:30:27.724Z,23.60
2022-10-23T03:33:00.479Z,23.60
2022-10-23T03:35:31.446Z,23.50
2022-10-23T03:38:06.294Z,23.40
2022-10-23T03:40:36.129Z,23.40
2022-10-23T03:43:06.350Z,23.40
2022-10-23T03:45:40.632Z,23.40
2022-10-23T03:48:12.184Z,23.40
2022-10-23T03:50:44.766Z,23.40
2022-10-23T03:53:18.756Z,23.40
2022-10-23T03:55:48.207Z,23.40
2022-10-23T03:58:20.958Z,23.30
2022-10-23T04:00:51.974Z,23.30
2022-10-23T04:03:24.535Z,23.20
2022-10-23T04:05:55.852Z,23.10
2022-10-23T04:08:29.231Z,23.10
2022-10-23T04:10:59.988Z,23.20
2022-10-23T04:13:39.064Z,23.00
2022-10-23T04:16:11.160Z,23.00
2022-10-23T04:18:52.594Z,23.10
2022-10-23T04:21:22.209Z,23.00
2022-10-23T04:23:54.340Z,23.00
2022-10-23T04:26:26.077Z,23.00
2022-10-23T04:28:57.661Z,23.00
2022-10-23T04:31:27.704Z,23.00
2022-10-23T04:34:01.400Z,23.00
2022-10-23T04:36:35.645Z,22.80
2022-10-23T04:39:12.155Z,23.00
2022-10-23T04:41:47.491Z,22.90
2022-10-23T04:44:20.409Z,22.90
2022-10-23T04:46:51.582Z,22.90
2022-10-23T04:49:21.669Z,22.90
2022-10-23T04:52:09.567Z,22.90
2022-10-23T04:54:57.428Z,22.90
2022-10-23T04:57:34.245Z,22.80
2022-10-23T05:00:11.747Z,22.80
2022-10-23T05:02:56.018Z,22.80
2022-10-23T05:05:26.124Z,22.70
2022-10-23T05:08:23.211Z,22.70
2022-10-23T05:11:11.719Z,22.70
2022-10-23T05:13:47.949Z,22.60
2022-10-23T05:16:31.257Z,22.70
2022-10-23T05:19:05.201Z,22.60
2022-10-23T05:21:37.411Z,22.60
2022-10-23T05:24:10.365Z,22.60
2022-10-23T05:26:57.264Z,22.60
2022-10-23T05:29:29.524Z,22.60
2022-10-23T05:32:05.678Z,22.50
2022-10-23T05:34:40.235Z,22.40
2022-10-23T05:37:14.947Z,22.50
2022-10-23T05:39:46.334Z,22.50
2022-10-23T05:42:20.133Z,22.50
2022-10-23T05:44:49.435Z,22.50
2022-10-23T05:47:38.921Z,22.50
2022-10-23T05:50:54.526Z,22.50
2022-10-23T05:53:40.235Z,22.50
2022-10-23T05:56:35.451Z,22.40
2022-10-23T05:59:26.138Z,22.40
2022-10-23T06:02:35.127Z,22.40
2022-10-23T06:05:16.407Z,22.20
2022-10-23T06:08:04.345Z,22.30
2022-10-23T06:10:38.151Z,22.40
2022-10-23T06:13:15.463Z,22.30
2022-10-23T06:15:46.619Z,22.30
2022-10-23T06:18:22.882Z,22.30
2022-10-23T06:21:03.600Z,22.20
2022-10-23T06:23:36.989Z,22.20
2022-10-23T06:26:21.335Z,22.20
2022-10-23T06:29:17.379Z,22.20
2022-10-23T06:31:49.106Z,22.10
2022-10-23T06:34:22.363Z,22.10
2022-10-23T06:36:52.685Z,22.10
2022-10-23T06:39:41.795Z,22.10
2022-10-23T06:42:20.852Z,22.10
2022-10-23T06:45:01.130Z,22.10
2022-10-23T06:47:54.631Z,22.10
2022-10-23T06:50:42.887Z,22.00
2022-10-23T06:53:23.601Z,22.10
2022-10-23T06:56:04.560Z,22.10
2022-10-23T06:58:41.005Z,22.00
2022-10-23T07:01:26.525Z,22.10
2022-10-23T07:03:57.089Z,22.10
2022-10-23T07:06:30.288Z,22.00
2022-10-23T07:09:03.474Z,22.00
2022-10-23T07:11:52.354Z,22.00
2022-10-23T07:14:27.836Z,21.90
2022-10-23T07:16:58.985Z,21.90
2022-10-23T07:19:30.622Z,21.90
2022-10-23T07:22:03.084Z,21.90
2022-10-23T07:24:43.846Z,21.90
2022-10-23T07:27:22.841Z,21.90
2022-10-23T07:30:02.362Z,21.90
2022-10-23T07:32:42.146Z,21.90
2022-10-23T07:35:34.412Z,21.80
2022-10-23T07:38:22.777Z,21.80
2022-10-23T07:41:00.553Z,21.80
2022-10-23T07:46:04.857Z,21.80
2022-10-23T07:48:40.529Z,21.80
2022-10-23T07:51:15.581Z,21.80
2022-10-23T07:53:52.497Z,21.90
2022-10-23T07:56:47.152Z,21.90
2022-10-23T07:59:25.603Z,21.90
2022-10-23T08:01:58.920Z,21.90
2022-10-23T08:04:36.326Z,21.90
2022-10-23T08:07:24.333Z,21.90
2022-10-23T08:09:57.464Z,21.80
2022-10-23T08:12:30.551Z,21.90
2022-10-23T08:15:01.809Z,21.90
2022-10-23T08:17:52.539Z,21.90
2022-10-23T08:20:26.840Z,21.90
2022-10-23T08:22:57.973Z,21.90
2022-10-23T08:25:29.936Z,21.90
2022-10-23T08:28:04.230Z,21.90
2022-10-23T08:30:44.361Z,21.90
2022-10-23T08:33:14.325Z,21.90
2022-10-23T08:35:46.432Z,21.80
2022-10-23T08:38:20.423Z,21.80
2022-10-23T08:40:57.055Z,21.90
2022-10-23T08:44:04.914Z,21.90
2022-10-23T08:46:50.015Z,21.90
2022-10-23T08:50:02.169Z,21.90
2022-10-23T08:52:58.120Z,21.90
2022-10-23T08:55:57.457Z,21.90
2022-10-23T08:58:33.101Z,21.90
2022-10-23T09:01:04.279Z,21.90
2022-10-23T09:03:35.131Z,21.80
2022-10-23T09:06:07.202Z,21.80
2022-10-23T09:09:09.833Z,21.80
2022-10-23T09:12:12.913Z,21.90
2022-10-23T09:15:10.629Z,21.80
2022-10-23T09:17:42.728Z,21.90
2022-10-23T09:20:37.522Z,21.80
2022-10-23T09:23:17.572Z,21.90
2022-10-23T09:25:50.295Z,21.90
2022-10-23T09:28:45.157Z,21.90
2022-10-23T09:31:16.401Z,21.90
2022-10-23T09:34:11.999Z,21.90
2022-10-23T09:36:52.329Z,22.00
2022-10-23T09:39:27.252Z,21.90
2022-10-23T09:41:59.146Z,21.90
2022-10-23T09:44:36.222Z,21.90
2022-10-23T09:47:14.068Z,21.90
2022-10-23T09:49:50.644Z,21.90
2022-10-23T09:52:25.932Z,21.90
2022-10-23T09:55:01.780Z,21.90
2022-10-23T09:57:42.050Z,21.80
2022-10-23T10:00:30.064Z,21.90
2022-10-23T10:03:05.097Z,21.90
2022-10-23T10:05:57.438Z,21.90
2022-10-23T10:08:51.384Z,21.90
2022-10-23T10:11:36.587Z,21.80
2022-10-23T10:14:39.694Z,21.80
2022-10-23T10:17:23.075Z,21.80
2022-10-23T10:20:21.922Z,21.90
2022-10-23T10:22:55.019Z,21.80
2022-10-23T10:26:03.535Z,21.80
2022-10-23T10:29:10.855Z,21.80
2022-10-23T10:32:07.124Z,21.80
2022-10-23T10:35:03.931Z,21.80
2022-10-23T10:37:57.843Z,21.90
2022-10-23T10:40:43.456Z,21.80
2022-10-23T10:43:42.971Z,21.90
2022-10-23T10:46:37.330Z,21.80
2022-10-23T10:49:31.855Z,21.80
2022-10-23T10:52:37.404Z,21.80
2022-10-23T10:55:35.501Z,21.80
2022-10-23T10:58:16.604Z,21.80
2022-10-23T11:00:53.620Z,21.80
2022-10-23T11:03:56.350Z,21.80
2022-10-23T11:06:30.843Z,21.80
2022-10-23T11:09:20.777Z,21.80
2022-10-23T11:11:51.199Z,21.80
2022-10-23T11:15:00.798Z,21.70
2022-10-23T11:17:45.476Z,21.80
2022-10-23T11:20:31.586Z,21.80
2022-10-23T11:23:31.077Z,21.70
2022-10-23T11:26:43.897Z,21.70
2022-10-23T11:29:34.656Z,21.80
2022-10-23T11:32:35.524Z,21.70
2022-10-23T11:35:43.289Z,21.70
2022-10-23T11:38:28.367Z,21.70
2022-10-23T11:41:06.371Z,21.70
2022-10-23T11:43:52.114Z,21.70
2022-10-23T11:46:28.359Z,21.70
2022-10-23T11:49:03.136Z,21.70
2022-10-23T11:51:39.814Z,21.70
2022-10-23T11:54:17.469Z,21.60
2022-10-23T11:57:12.226Z,21.60
2022-10-23T11:59:49.454Z,21.70
2022-10-23T12:02:33.499Z,21.60
2022-10-23T12:05:29.557Z,21.60
2022-10-23T12:08:03.083Z,21.60
2022-10-23T12:10:44.654Z,21.60
2022-10-23T12:13:39.455Z,21.60
2022-10-23T12:16:10.019Z,21.60
2022-10-23T12:19:19.310Z,21.60
2022-10-23T12:21:54.571Z,21.60
2022-10-23T12:24:28.642Z,21.60
2022-10-23T12:27:12.324Z,21.50
2022-10-23T12:30:03.915Z,21.50
2022-10-23T12:32:35.466Z,21.50
2022-10-23T12:35:22.024Z,21.40
2022-10-23T12:38:24.558Z,21.40
2022-10-23T12:41:44.002Z,21.40
2022-10-23T12:44:17.548Z,21.40
2022-10-23T12:46:57.769Z,21.20
2022-10-23T12:49:32.799Z,21.30
2022-10-23T12:52:05.678Z,21.30
2022-10-23T12:54:40.580Z,21.30
2022-10-23T12:57:33.846Z,21.30
2022-10-23T13:00:13.059Z,21.20
2022-10-23T13:02:44.640Z,21.20
2022-10-23T13:05:20.881Z,21.10
2022-10-23T13:07:58.821Z,21.20
2022-10-23T13:10:48.321Z,21.20
2022-10-23T13:13:27.481Z,21.20
2022-10-23T13:16:04.286Z,21.20
2022-10-23T13:18:45.748Z,21.20
2022-10-23T13:21:29.942Z,21.20
2022-10-23T13:24:01.913Z,21.30
2022-10-23T13:26:45.984Z,21.30
2022-10-23T13:31:59.774Z,21.30
2022-10-23T13:34:36.727Z,21.30
2022-10-23T13:37:29.184Z,21.30
2022-10-23T13:40:20.927Z,21.30
2022-10-23T13:42:51.753Z,21.40
2022-10-23T13:45:26.445Z,21.40
2022-10-23T13:47:59.415Z,21.40
2022-10-23T13:50:29.821Z,21.40
2022-10-23T13:52:59.670Z,21.50
2022-10-23T13:55:31.062Z,21.50
2022-10-23T13:58:06.585Z,21.50
2022-10-23T14:00:39.736Z,21.50
2022-10-23T14:03:13.253Z,21.50
2022-10-23T14:05:43.515Z,21.40
2022-10-23T14:08:15.180Z,21.50
2022-10-23T14:10:49.322Z,21.50
2022-10-23T14:13:18.911Z,21.50
2022-10-23T14:15:55.913Z,21.60
2022-10-23T14:18:25.346Z,21.60
2022-10-23T14:20:56.717Z,21.60
2022-10-23T14:23:27.741Z,21.70
2022-10-23T14:26:14.890Z,21.70
2022-10-23T14:28:44.553Z,21.70
2022-10-23T14:31:18.378Z,21.80
2022-10-23T14:33:56.056Z,21.80
2022-10-23T14:36:38.849Z,21.80
2022-10-23T14:39:21.628Z,21.90
2022-10-23T14:41:53.216Z,21.90
2022-10-23T14:44:24.392Z,22.00
2022-10-23T14:46:55.939Z,22.00
2022-10-23T14:49:27.680Z,22.10
2022-10-23T14:51:58.109Z,22.10
2022-10-23T14:54:30.596Z,22.10
2022-10-23T14:57:01.573Z,22.10
2022-10-23T14:59:31.599Z,22.20
2022-10-23T15:02:02.546Z,22.30
2022-10-23T15:04:33.182Z,22.30
2022-10-23T15:07:04.894Z,22.30
2022-10-23T15:09:37.876Z,22.40
2022-10-23T15:12:10.846Z,22.40
2022-10-23T15:14:44.621Z,22.50
2022-10-23T15:17:16.738Z,22.50
2022-10-23T15:19:47.987Z,22.70
2022-10-23T15:22:20.442Z,22.70
2022-10-23T15:24:52.271Z,22.70
2022-10-23T15:27:22.040Z,22.70
2022-10-23T15:29:54.349Z,22.80
2022-10-23T15:32:25.109Z,22.90
2022-10-23T15:34:56.483Z,22.90
2022-10-23T15:37:29.669Z,22.90
2022-10-23T15:40:02.635Z,22.90
2022-10-23T15:42:33.646Z,23.00
2022-10-23T15:45:04.333Z,23.00
2022-10-23T15:47:35.171Z,23.00
2022-10-23T15:50:06.399Z,23.00
2022-10-23T15:52:37.524Z,23.00
2022-10-23T15:55:08.016Z,23.10
2022-10-23T15:57:38.332Z,23.20
2022-10-23T16:00:12.726Z,23.20
2022-10-23T16:02:46.872Z,23.20
2022-10-23T16:05:19.917Z,23.30
2022-10-23T16:07:50.713Z,23.30
2022-10-23T16:10:21.412Z,23.30
2022-10-23T16:12:51.797Z,23.30
2022-10-23T16:15:24.484Z,23.40
2022-10-23T16:17:56.173Z,23.50
2022-10-23T16:20:26.933Z,23.50
2022-10-23T16:22:59.164Z,23.50
2022-10-23T16:25:30.508Z,23.70
2022-10-23T16:28:00.884Z,23.70
2022-10-23T16:30:31.372Z,23.70
2022-10-23T16:33:01.682Z,23.80
2022-10-23T16:35:31.764Z,23.80
2022-10-23T16:38:10.925Z,23.80
2022-10-23T16:40:46.093Z,23.90
2022-10-23T16:43:35.788Z,23.80
2022-10-23T16:46:20.443Z,24.00
2022-10-23T16:48:53.210Z,23.90
2022-10-23T16:51:27.397Z,24.10
2022-10-23T16:54:01.669Z,24.10
2022-10-23T16:56:32.207Z,24.10
2022-10-23T16:59:04.813Z,24.10
2022-10-23T17:01:36.200Z,24.10
2022-10-23T17:04:09.631Z,24.10
2022-10-23T17:06:40.330Z,24.20
2022-10-23T17:09:10.748Z,24.30
2022-10-23T17:11:46.793Z,24.50
2022-10-23T17:14:22.083Z,24.50
2022-10-23T17:16:55.312Z,24.50
2022-10-23T17:22:19.169Z,24.40
2022-10-23T17:24:54.006Z,24.40
2022-10-23T17:27:26.484Z,24.50
2022-10-23T17:29:59.429Z,24.40
2022-10-23T17:32:32.303Z,24.50
2022-10-23T17:35:03.547Z,24.60
2022-10-23T17:37:36.071Z,24.60
2022-10-23T17:40:10.699Z,24.80
2022-10-23T17:42:41.883Z,24.80
2022-10-23T17:45:15.001Z,24.90
2022-10-23T17:47:46.897Z,25.00
2022-10-23T17:50:18.861Z,24.90
2022-10-23T17:52:48.827Z,25.10
2022-10-23T17:55:21.626Z,25.20
2022-10-23T17:57:51.506Z,25.10
2022-10-23T18:00:24.692Z,25.30
2022-10-23T18:02:58.046Z,25.20
2022-10-23T18:05:28.752Z,25.20
2022-10-23T18:08:00.927Z,25.20
2022-10-23T18:10:36.825Z,25.30
2022-10-23T18:13:07.443Z,25.30
2022-10-23T18:15:38.222Z,25.50
2022-10-23T18:18:08.609Z,25.40
2022-10-23T18:20:44.643Z,25.40
2022-10-23T18:23:15.738Z,25.40
2022-10-23T18:25:47.915Z,25.50
2022-10-23T18:28:21.651Z,25.50
2022-10-23T18:30:54.776Z,25.50
2022-10-23T18:33:28.610Z,25.40
2022-10-23T18:35:58.786Z,25.50
2022-10-23T18:38:32.188Z,25.60
2022-10-23T18:41:04.785Z,25.70
2022-10-23T18:43:44.134Z,25.80
2022-10-23T18:46:18.245Z,25.80
2022-10-23T18:48:51.713Z,25.90
2022-10-23T18:51:32.296Z,25.90
2022-10-23T18:54:07.236Z,25.80
2022-10-23T18:56:37.203Z,25.70
2022-10-23T18:59:17.175Z,25.80
2022-10-23T19:01:50.635Z,25.70
2022-10-23T19:04:23.069Z,25.80
2022-10-23T19:06:57.063Z,25.80
2022-10-23T19:09:30.838Z,25.80
2022-10-23T19:12:03.379Z,25.90
2022-10-23T19:14:34.965Z,26.00
2022-10-23T19:17:21.325Z,26.10
2022-10-23T19:20:00.233Z,26.00
2022-10-23T19:22:33.314Z,25.90
2022-10-23T19:25:14.829Z,26.10
2022-10-23T19:27:48.635Z,26.30
2022-10-23T19:30:22.738Z,26.30
2022-10-23T19:32:54.369Z,26.40
2022-10-23T19:35:25.497Z,26.50
2022-10-23T19:37:57.662Z,26.60
2022-10-23T19:40:28.922Z,26.50
2022-10-23T19:42:58.632Z,26.60
2022-10-23T19:48:00.672Z,26.70
2022-10-23T19:50:31.061Z,26.40
2022-10-23T19:53:02.781Z,26.40
2022-10-23T19:55:36.088Z,26.60
2022-10-23T19:58:05.825Z,26.70
2022-10-23T20:00:41.822Z,26.60
2022-10-23T20:03:11.868Z,26.50
2022-10-23T20:05:46.431Z,26.40
2022-10-23T20:08:16.887Z,26.60
2022-10-23T20:10:49.213Z,26.50
2022-10-23T20:13:26.543Z,26.60
2022-10-23T20:15:57.597Z,26.70
2022-10-23T20:18:27.444Z,26.50
2022-10-23T20:21:04.279Z,26.40
2022-10-23T20:23:34.419Z,26.40
2022-10-23T20:26:13.475Z,26.40
2022-10-23T20:28:48.505Z,26.50
2022-10-23T20:31:20.348Z,26.50
2022-10-23T20:33:53.600Z,26.60
2022-10-23T20:36:30.396Z,26.70
2022-10-23T20:39:08.345Z,26.70
2022-10-23T20:41:38.767Z,26.70
2022-10-23T20:44:12.694Z,26.80
2022-10-23T20:46:43.066Z,26.70
2022-10-23T20:49:15.300Z,26.80
2022-10-23T20:51:47.516Z,26.80
2022-10-23T20:54:19.664Z,26.70
2022-10-23T20:56:52.037Z,26.70
2022-10-23T20:59:23.322Z,26.70
2022-10-23T21:02:01.263Z,26.50
2022-10-23T21:04:30.892Z,26.50
2022-10-23T21:07:10.001Z,26.50
2022-10-23T21:09:42.724Z,26.50
2022-10-23T21:12:13.617Z,26.50
2022-10-23T21:14:45.686Z,26.60
2022-10-23T21:17:18.602Z,26.50
2022-10-23T21:19:49.852Z,26.30
2022-10-23T21:22:19.286Z,26.30
2022-10-23T21:24:51.326Z,26.50
2022-10-23T21:27:22.571Z,26.50
2022-10-23T21:29:54.150Z,26.70
2022-10-23T21:32:24.261Z,26.70
2022-10-23T21:34:59.428Z,26.60
2022-10-23T21:37:34.394Z,26.70
2022-10-23T21:40:04.115Z,26.60
2022-10-23T21:42:37.037Z,26.50
2022-10-23T21:45:06.896Z,26.40
2022-10-23T21:47:38.786Z,26.40
2022-10-23T21:50:14.113Z,26.50
2022-10-23T21:52:45.429Z,26.60
2022-10-23T21:55:24.843Z,26.50
2022-10-23T21:57:55.704Z,26.60
2022-10-23T22:00:29.993Z,26.70
2022-10-23T22:03:00.868Z,26.60
2022-10-23T22:05:33.689Z,26.50
2022-10-23T22:08:05.821Z,26.40
2022-10-23T22:10:36.297Z,26.40
2022-10-23T22:13:06.689Z,26.40
2022-10-23T22:15:42.599Z,26.30
2022-10-23T22:18:15.269Z,26.30
2022-10-23T22:20:54.743Z,26.30
2022-10-23T22:23:31.994Z,26.30
2022-10-23T22:26:09.551Z,26.30
2022-10-23T22:28:40.713Z,26.20
2022-10-23T22:31:20.620Z,26.20
2022-10-23T22:33:56.092Z,26.30
2022-10-23T22:36:28.256Z,26.20
2022-10-23T22:38:59.224Z,26.20
2022-10-23T22:41:30.693Z,26.20
2022-10-23T22:44:03.218Z,26.20
2022-10-23T22:46:34.607Z,26.20
2022-10-23T22:51:37.811Z,26.20
2022-10-23T22:54:07.878Z,26.30
2022-10-23T22:56:38.452Z,26.20
2022-10-23T22:59:08.887Z,26.10
2022-10-23T23:01:45.663Z,26.10
2022-10-23T23:04:37.255Z,26.10
2022-10-23T23:07:17.051Z,26.10
2022-10-23T23:09:51.460Z,26.20
2022-10-23T23:12:22.294Z,26.10
2022-10-23T23:14:54.204Z,26.00
2022-10-23T23:17:27.788Z,26.00
2022-10-23T23:19:58.074Z,26.00
2022-10-23T23:22:28.674Z,26.00
2022-10-23T23:25:01.834Z,26.00
2022-10-23T23:27:35.846Z,26.00
2022-10-23T23:30:08.951Z,25.90
2022-10-23T23:32:38.456Z,25.90
2022-10-23T23:35:09.174Z,25.90
2022-10-23T23:37:40.152Z,25.80
2022-10-23T23:40:11.219Z,25.80
2022-10-23T23:42:44.108Z,25.70
2022-10-23T23:45:18.051Z,25.80
2022-10-23T23:47:50.098Z,25.80
2022-10-23T23:50:20.253Z,25.80
2022-10-23T23:52:52.771Z,25.60
2022-10-23T23:55:24.594Z,25.70
2022-10-23T23:57:56.098Z,25.70
